createdAt,value
2023-01-29T00:02:27.931Z,5.00
2023-01-29T00:05:25.441Z,7.00
2023-01-29T00:13:15.784Z,7.20
2023-01-29T00:16:02.882Z,7.60
2023-01-29T00:18:42.792Z,6.90
2023-01-29T00:21:22.517Z,6.10
2023-01-29T00:24:00.223Z,7.50
2023-01-29T00:26:39.304Z,8.10
2023-01-29T00:29:16.132Z,9.50
2023-01-29T00:31:53.550Z,7.20
2023-01-29T00:34:30.622Z,8.90
2023-01-29T00:37:09.329Z,8.20
2023-01-29T00:39:48.424Z,7.60
2023-01-29T00:42:46.043Z,6.20
2023-01-29T00:45:24.095Z,5.70
2023-01-29T00:48:01.023Z,9.70
2023-01-29T00:50:38.314Z,8.60
2023-01-29T00:53:15.902Z,5.20
2023-01-29T00:55:53.207Z,5.70
2023-01-29T00:58:37.619Z,7.70
2023-01-29T01:01:14.794Z,7.80
2023-01-29T01:03:52.923Z,8.10
2023-01-29T01:06:31.013Z,5.40
2023-01-29T01:09:28.253Z,7.40
2023-01-29T01:12:05.357Z,7.30
2023-01-29T01:14:43.539Z,4.90
2023-01-29T01:17:20.953Z,4.60
2023-01-29T01:19:51.556Z,6.90
2023-01-29T01:22:28.606Z,6.90
2023-01-29T01:25:06.630Z,6.40
2023-01-29T01:27:43.716Z,5.40
2023-01-29T01:30:17.139Z,5.70
2023-01-29T01:32:51.667Z,7.40
2023-01-29T01:35:29.079Z,5.30
2023-01-29T01:38:07.342Z,8.60
2023-01-29T01:40:47.596Z,4.60
2023-01-29T01:43:25.001Z,6.40
2023-01-29T01:46:02.450Z,5.80
2023-01-29T01:48:40.411Z,6.10
2023-01-29T01:51:19.587Z,7.80
2023-01-29T01:54:08.208Z,5.10
2023-01-29T01:56:52.833Z,5.10
2023-01-29T01:59:30.642Z,6.80
2023-01-29T02:02:30.806Z,8.50
2023-01-29T02:05:29.200Z,5.20
2023-01-29T02:08:25.623Z,5.50
2023-01-29T02:10:56.822Z,6.60
2023-01-29T02:13:33.078Z,5.50
2023-01-29T02:16:11.663Z,7.00
2023-01-29T07:52:42.937Z,9.80
2023-01-29T07:55:21.121Z,11.60
2023-01-29T07:58:05.321Z,10.30
2023-01-29T08:05:25.590Z,9.10
2023-01-29T08:08:07.621Z,8.60
2023-01-29T08:10:45.706Z,11.40
2023-01-29T08:13:23.437Z,11.90
2023-01-29T08:16:03.488Z,9.10
2023-01-29T08:18:33.698Z,13.30
2023-01-29T08:21:04.696Z,12.20
2023-01-29T08:23:35.828Z,9.70
2023-01-29T08:26:06.522Z,7.30
2023-01-29T08:28:44.390Z,8.30
2023-01-29T08:31:25.634Z,9.50
2023-01-29T08:34:03.486Z,8.60
2023-01-29T08:36:41.606Z,8.70
2023-01-29T08:39:12.931Z,9.60
2023-01-29T08:41:51.438Z,11.80
2023-01-29T08:44:29.075Z,6.60
2023-01-29T08:47:05.532Z,10.30
2023-01-29T08:49:44.117Z,12.60
2023-01-29T08:52:22.199Z,9.30
2023-01-29T08:55:00.455Z,12.10
2023-01-29T08:57:30.873Z,8.50
2023-01-29T09:00:07.314Z,10.00
2023-01-29T09:02:44.310Z,9.00
2023-01-29T09:05:19.398Z,10.80
2023-01-29T09:07:49.984Z,11.90
2023-01-29T09:10:27.760Z,9.80
2023-01-29T09:13:06.124Z,6.60
2023-01-29T09:15:44.256Z,7.70
2023-01-29T09:18:15.137Z,12.60
2023-01-29T09:20:49.066Z,11.30
2023-01-29T09:23:27.429Z,10.40
2023-01-29T09:26:05.700Z,8.00
2023-01-29T09:28:37.544Z,9.70
2023-01-29T09:31:16.782Z,12.80
2023-01-29T09:33:54.968Z,9.20
2023-01-29T09:36:32.987Z,10.10
2023-01-29T09:39:07.786Z,12.10
2023-01-29T09:42:08.065Z,12.40
2023-01-29T09:44:59.892Z,10.50
2023-01-29T09:47:33.554Z,9.60
2023-01-29T09:50:20.396Z,10.40
2023-01-29T09:53:24.014Z,11.10
2023-01-29T09:56:29.532Z,8.80
2023-01-29T09:59:07.712Z,11.10
2023-01-29T10:02:07.957Z,9.60
2023-01-29T10:05:29.792Z,8.50
2023-01-29T10:08:27.786Z,11.60
2023-01-29T10:12:01.955Z,8.20
2023-01-29T10:15:12.625Z,4.80
2023-01-29T10:18:20.679Z,8.90
2023-01-29T10:21:28.496Z,9.60
2023-01-29T10:24:43.754Z,8.50
2023-01-29T10:27:25.078Z,8.10
2023-01-29T10:30:25.981Z,6.70
2023-01-29T10:33:05.803Z,7.60
2023-01-29T10:35:54.697Z,10.30
2023-01-29T10:38:51.313Z,8.50
2023-01-29T10:41:59.900Z,10.20
2023-01-29T10:45:30.546Z,11.80
2023-01-29T10:48:10.887Z,8.00
2023-01-29T10:50:52.850Z,12.80
2023-01-29T10:53:43.069Z,11.30
2023-01-29T10:56:46.185Z,10.30
2023-01-29T10:59:33.447Z,13.00
2023-01-29T11:02:18.560Z,13.60
2023-01-29T11:10:19.156Z,11.10
2023-01-29T11:12:53.750Z,13.00
2023-01-29T11:15:35.437Z,9.60
2023-01-29T11:18:15.858Z,9.70
2023-01-29T11:21:05.533Z,13.20
2023-01-29T11:23:36.631Z,9.50
2023-01-29T11:26:22.710Z,12.60
2023-01-29T11:28:52.797Z,9.80
2023-01-29T11:31:42.136Z,15.30
2023-01-29T11:34:32.862Z,10.60
2023-01-29T11:37:20.298Z,9.70
2023-01-29T11:39:57.697Z,9.20
2023-01-29T11:42:36.559Z,12.00
2023-01-29T11:45:34.572Z,10.30
2023-01-29T11:48:18.983Z,7.60
2023-01-29T11:51:04.279Z,10.60
2023-01-29T11:54:01.678Z,10.60
2023-01-29T11:56:46.553Z,8.50
2023-01-29T11:59:52.703Z,9.00
2023-01-29T12:02:44.941Z,8.40
2023-01-29T12:05:24.987Z,6.60
2023-01-29T12:08:05.133Z,10.70
2023-01-29T12:10:46.884Z,9.20
2023-01-29T12:16:27.346Z,8.80
2023-01-29T12:19:43.476Z,9.50
2023-01-29T12:26:03.921Z,8.50
2023-01-29T12:28:55.804Z,11.70
2023-01-29T12:31:43.580Z,9.50
2023-01-29T12:34:49.999Z,9.90
2023-01-29T12:38:05.754Z,9.90
2023-01-29T12:43:38.252Z,12.00
2023-01-29T12:46:18.917Z,13.70
2023-01-29T12:48:57.174Z,9.60
2023-01-29T12:51:45.083Z,13.50
2023-01-29T12:54:32.901Z,13.90
2023-01-29T12:57:20.477Z,15.60
2023-01-29T13:00:08.822Z,12.60
2023-01-29T13:03:02.537Z,13.00
2023-01-29T13:06:00.881Z,11.80
2023-01-29T13:09:09.521Z,9.30
2023-01-29T13:12:11.456Z,11.70
2023-01-29T13:15:22.845Z,15.40
2023-01-29T13:18:22.927Z,17.90
2023-01-29T13:20:56.539Z,14.10
2023-01-29T13:23:50.109Z,11.90
2023-01-29T13:26:23.330Z,13.30
2023-01-29T13:28:56.697Z,9.40
2023-01-29T13:31:39.307Z,14.60
2023-01-29T13:34:28.917Z,16.30
2023-01-29T13:37:19.566Z,14.50
2023-01-29T13:40:01.876Z,14.60
2023-01-29T13:42:49.269Z,10.10
2023-01-29T13:45:48.545Z,11.40
2023-01-29T13:48:37.383Z,12.20
2023-01-29T13:51:20.989Z,11.50
2023-01-29T13:54:06.220Z,11.40
2023-01-29T13:57:00.398Z,15.80
2023-01-29T14:02:35.608Z,18.10
2023-01-29T14:05:38.648Z,14.40
2023-01-29T14:08:44.172Z,9.00
2023-01-29T14:11:30.451Z,13.20
2023-01-29T14:14:43.597Z,15.40
2023-01-29T14:17:21.715Z,15.20
2023-01-29T14:20:17.915Z,15.60
2023-01-29T14:23:00.867Z,16.50
2023-01-29T14:25:41.399Z,13.30
2023-01-29T14:28:24.538Z,19.40
2023-01-29T14:30:58.465Z,22.90
2023-01-29T14:33:43.549Z,13.40
2023-01-29T14:36:18.466Z,17.00
2023-01-29T14:38:59.717Z,12.30
2023-01-29T14:41:34.350Z,13.00
2023-01-29T14:44:47.847Z,13.20
2023-01-29T14:47:30.121Z,16.30
2023-01-29T14:50:35.247Z,16.70
2023-01-29T14:53:44.386Z,14.60
2023-01-29T14:56:56.183Z,17.00
2023-01-29T14:59:38.576Z,9.10
2023-01-29T15:02:20.874Z,15.00
2023-01-29T15:04:59.064Z,16.20
2023-01-29T15:08:18.190Z,19.80
2023-01-29T15:11:19.682Z,20.60
2023-01-29T15:14:24.279Z,18.80
2023-01-29T15:16:59.295Z,12.50
2023-01-29T15:19:45.701Z,18.30
2023-01-29T15:22:26.451Z,15.90
2023-01-29T15:25:21.930Z,17.10
2023-01-29T15:28:02.709Z,10.70
2023-01-29T15:30:43.766Z,13.50
2023-01-29T15:33:21.880Z,11.50
2023-01-29T15:36:07.869Z,15.30
2023-01-29T15:38:46.434Z,16.80
2023-01-29T15:41:26.710Z,14.40
2023-01-29T15:44:05.610Z,14.60
2023-01-29T15:46:46.051Z,12.80
2023-01-29T15:49:36.452Z,11.80
2023-01-29T15:52:22.646Z,16.30
2023-01-29T15:55:03.686Z,12.70
2023-01-29T15:57:43.177Z,14.70
2023-01-29T16:00:39.284Z,12.00
2023-01-29T16:03:38.064Z,13.80
2023-01-29T16:06:09.650Z,9.40
2023-01-29T16:08:55.240Z,13.30
2023-01-29T16:11:34.790Z,15.40
2023-01-29T16:14:08.548Z,16.40
2023-01-29T16:16:46.319Z,16.00
2023-01-29T16:19:30.268Z,15.30
2023-01-29T16:22:09.028Z,14.80
2023-01-29T16:24:48.420Z,11.80
2023-01-29T16:27:30.311Z,19.60
2023-01-29T16:32:45.342Z,14.20
2023-01-29T16:35:23.849Z,17.30
2023-01-29T16:38:06.579Z,17.70
2023-01-29T16:41:05.370Z,16.30
2023-01-29T16:43:50.590Z,17.80
2023-01-29T16:46:26.750Z,19.40
2023-01-29T16:49:02.177Z,18.40
2023-01-29T16:51:41.622Z,17.60
2023-01-29T16:54:26.721Z,19.30
2023-01-29T16:57:02.645Z,17.90
2023-01-29T16:59:42.735Z,16.70
2023-01-29T17:02:29.490Z,17.20
2023-01-29T17:05:09.152Z,20.30
2023-01-29T17:07:46.596Z,19.20
2023-01-29T17:10:22.675Z,17.30
2023-01-29T17:13:09.441Z,21.00
2023-01-29T17:15:46.893Z,22.70
2023-01-29T17:18:24.250Z,13.80
2023-01-29T17:21:01.683Z,21.00
2023-01-29T17:23:38.511Z,21.80
2023-01-29T17:26:13.041Z,14.60
2023-01-29T17:28:53.040Z,16.30
2023-01-29T17:31:30.047Z,20.40
2023-01-29T17:34:19.707Z,19.50
2023-01-29T17:36:57.778Z,23.30
2023-01-29T17:39:35.388Z,19.00
2023-01-29T17:42:15.455Z,17.30
2023-01-29T17:44:52.976Z,19.20
2023-01-29T17:47:30.506Z,18.30
2023-01-29T17:50:01.793Z,20.30
2023-01-29T17:52:32.971Z,17.40
2023-01-29T17:55:03.081Z,27.40
2023-01-29T17:57:40.469Z,20.20
2023-01-29T18:00:24.010Z,18.70
2023-01-29T18:03:03.322Z,18.20
2023-01-29T18:05:43.062Z,19.50
2023-01-29T18:08:37.936Z,17.70
2023-01-29T18:11:13.512Z,22.10
2023-01-29T18:13:44.674Z,19.70
2023-01-29T18:16:17.815Z,16.80
2023-01-29T18:18:57.057Z,16.70
2023-01-29T18:21:34.374Z,14.70
2023-01-29T18:24:05.165Z,15.80
2023-01-29T18:26:43.836Z,17.70
2023-01-29T18:29:21.726Z,23.60
2023-01-29T18:32:00.530Z,19.60
2023-01-29T18:34:37.494Z,17.60
2023-01-29T18:37:07.691Z,16.10
2023-01-29T18:39:44.293Z,18.70
2023-01-29T18:42:21.409Z,17.30
2023-01-29T18:44:58.733Z,16.10
2023-01-29T18:47:35.699Z,22.40
2023-01-29T18:50:07.788Z,25.40
2023-01-29T18:52:47.134Z,22.30
2023-01-29T18:55:27.249Z,19.60
2023-01-29T18:58:28.502Z,20.50
2023-01-29T19:01:02.658Z,23.30
2023-01-29T19:03:40.207Z,18.80
2023-01-29T19:06:17.869Z,19.00
2023-01-29T19:08:55.551Z,18.30
2023-01-29T19:11:33.059Z,15.00
2023-01-29T19:14:04.888Z,14.70
2023-01-29T19:16:44.170Z,18.90
2023-01-29T19:19:21.945Z,23.90
2023-01-29T19:21:54.732Z,17.60
2023-01-29T19:24:27.709Z,20.60
2023-01-29T19:27:06.210Z,21.70
2023-01-29T19:29:44.501Z,17.20
2023-01-29T19:32:22.532Z,19.20
2023-01-29T19:35:00.860Z,22.30
2023-01-29T19:37:39.085Z,20.80
2023-01-29T19:40:10.834Z,21.30
2023-01-29T19:42:49.245Z,20.40
2023-01-29T19:45:49.049Z,21.40
2023-01-29T19:48:26.972Z,20.50
2023-01-29T19:51:08.936Z,14.00
2023-01-29T19:56:19.225Z,18.60
2023-01-29T19:58:57.674Z,24.50
2023-01-29T20:01:35.351Z,18.90
2023-01-29T20:04:06.444Z,16.60
2023-01-29T20:06:44.872Z,20.20
2023-01-29T20:09:22.859Z,21.70
2023-01-29T20:11:53.201Z,20.40
2023-01-29T20:14:27.708Z,27.60
2023-01-29T20:17:07.781Z,20.00
2023-01-29T20:19:45.618Z,22.00
2023-01-29T20:22:23.461Z,23.10
2023-01-29T20:25:01.017Z,21.30
2023-01-29T20:27:38.952Z,18.40
2023-01-29T20:30:10.590Z,21.40
2023-01-29T20:32:47.982Z,22.90
2023-01-29T20:35:18.657Z,19.10
2023-01-29T20:37:50.100Z,24.00
2023-01-29T20:40:28.149Z,17.50
2023-01-29T20:43:05.711Z,19.10
2023-01-29T20:45:45.612Z,19.10
2023-01-29T20:48:24.590Z,20.60
2023-01-29T20:51:08.271Z,20.00
2023-01-29T20:53:47.011Z,22.40
2023-01-29T20:56:35.619Z,22.10
2023-01-29T20:59:13.911Z,18.50
2023-01-29T21:02:00.998Z,20.60
2023-01-29T21:04:33.479Z,21.50
2023-01-29T21:07:05.257Z,16.40
2023-01-29T21:09:44.491Z,12.70
2023-01-29T21:12:15.753Z,17.30
2023-01-29T21:14:54.437Z,15.60
2023-01-29T21:17:32.011Z,15.70
2023-01-29T21:20:08.627Z,20.00
2023-01-29T21:22:46.283Z,22.60
2023-01-29T21:25:23.846Z,18.20
2023-01-29T21:27:54.220Z,20.60
2023-01-29T21:30:25.985Z,19.20
2023-01-29T21:33:04.432Z,13.70
2023-01-29T21:35:42.334Z,20.60
2023-01-29T21:38:20.204Z,18.60
2023-01-29T21:41:02.707Z,24.10
2023-01-29T21:43:40.885Z,16.40
2023-01-29T21:46:13.723Z,16.70
2023-01-29T21:48:51.867Z,23.10
2023-01-29T21:51:29.929Z,20.90
2023-01-29T21:54:05.970Z,18.50
2023-01-29T21:56:36.030Z,19.80
2023-01-29T21:59:07.547Z,20.20
2023-01-29T22:01:45.899Z,16.10
2023-01-29T22:04:24.604Z,18.40
2023-01-29T22:07:02.061Z,19.30
2023-01-29T22:09:40.168Z,16.00
2023-01-29T22:12:10.602Z,19.50
2023-01-29T22:14:48.744Z,24.10
2023-01-29T22:17:26.654Z,15.20
2023-01-29T22:20:06.068Z,19.10
2023-01-29T22:22:44.294Z,17.30
2023-01-29T22:25:22.872Z,18.50
2023-01-29T22:27:53.936Z,17.60
2023-01-29T22:30:31.345Z,26.70
2023-01-29T22:33:05.229Z,20.80
2023-01-29T22:35:44.503Z,22.20
2023-01-29T22:38:22.943Z,17.60
2023-01-29T22:41:01.410Z,16.40
2023-01-29T22:43:38.664Z,18.00
2023-01-29T22:46:09.848Z,17.80
2023-01-29T22:48:40.953Z,17.60
2023-01-29T22:51:14.559Z,21.80
2023-01-29T22:53:54.431Z,20.30
2023-01-29T22:56:32.511Z,18.80
2023-01-29T22:59:04.885Z,11.60
2023-01-29T23:01:43.799Z,18.50
